createdAt,value
2023-05-10T00:02:16.359Z,95249.00
2023-05-10T00:05:03.614Z,95253.00
2023-05-10T00:07:49.857Z,95248.00
2023-05-10T00:10:38.411Z,95246.00
2023-05-10T00:13:25.000Z,95249.00
2023-05-10T00:16:11.125Z,95250.00
2023-05-10T00:18:57.046Z,95246.00
2023-05-10T00:21:42.787Z,95241.00
2023-05-10T00:24:31.370Z,95240.00
2023-05-10T00:27:17.328Z,95237.00
2023-05-10T00:30:13.409Z,95235.00
2023-05-10T00:33:00.147Z,95242.00
2023-05-10T00:35:46.274Z,95238.00
2023-05-10T00:38:32.319Z,95224.00
2023-05-10T00:41:18.545Z,95228.00
2023-05-10T00:44:05.530Z,95222.00
2023-05-10T00:46:51.379Z,95236.00
2023-05-10T00:49:41.616Z,95231.00
2023-05-10T00:52:29.304Z,95231.00
2023-05-10T00:55:15.405Z,95223.00
2023-05-10T00:58:01.534Z,95228.00
2023-05-10T01:00:52.424Z,95225.00
2023-05-10T01:03:39.010Z,95229.00
2023-05-10T01:06:27.494Z,95231.00
2023-05-10T01:09:14.006Z,95231.00
2023-05-10T01:12:01.012Z,95226.00
2023-05-10T01:14:49.746Z,95232.00
2023-05-10T01:17:39.325Z,95237.00
2023-05-10T01:20:35.161Z,95237.00
2023-05-10T01:23:43.747Z,95241.00
2023-05-10T01:26:53.756Z,95239.00
2023-05-10T01:30:15.392Z,95237.00
2023-05-10T01:33:45.082Z,95230.00
2023-05-10T01:36:47.645Z,95239.00
2023-05-10T01:39:59.416Z,95240.00
2023-05-10T01:42:56.506Z,95243.00
2023-05-10T01:46:12.018Z,95248.00
2023-05-10T01:49:02.635Z,95245.00
2023-05-10T01:51:57.994Z,95249.00
2023-05-10T01:54:51.556Z,95248.00
2023-05-10T01:57:40.992Z,95249.00
2023-05-10T02:00:28.367Z,95247.00
2023-05-10T02:03:16.310Z,95252.00
2023-05-10T02:06:04.696Z,95256.00
2023-05-10T02:08:52.530Z,95259.00
2023-05-10T02:11:44.795Z,95270.00
2023-05-10T02:14:38.265Z,95267.00
2023-05-10T02:17:26.339Z,95263.00
2023-05-10T02:20:14.201Z,95271.00
2023-05-10T02:23:02.158Z,95268.00
2023-05-10T02:25:51.564Z,95278.00
2023-05-10T02:28:39.137Z,95287.00
2023-05-10T02:31:29.644Z,95289.00
2023-05-10T02:34:16.109Z,95289.00
2023-05-10T02:37:06.956Z,95291.00
2023-05-10T02:39:56.544Z,95294.00
2023-05-10T02:42:45.093Z,95295.00
2023-05-10T02:45:33.451Z,95298.00
2023-05-10T02:48:19.355Z,95304.00
2023-05-10T02:51:08.582Z,95293.00
2023-05-10T02:54:14.327Z,95302.00
2023-05-10T02:57:05.610Z,95300.00
2023-05-10T02:59:51.539Z,95308.00
2023-05-10T03:02:37.504Z,95306.00
2023-05-10T03:05:24.372Z,95309.00
2023-05-10T03:08:13.520Z,95310.00
2023-05-10T03:11:36.858Z,95309.00
2023-05-10T03:15:02.785Z,95308.00
2023-05-10T03:18:08.172Z,95314.00
2023-05-10T03:21:06.314Z,95321.00
2023-05-10T03:24:07.320Z,95330.00
2023-05-10T03:26:58.068Z,95329.00
2023-05-10T03:29:47.891Z,95335.00
2023-05-10T03:32:35.931Z,95333.00
2023-05-10T03:35:25.361Z,95336.00
2023-05-10T03:38:12.776Z,95336.00
2023-05-10T03:40:59.803Z,95332.00
2023-05-10T03:43:45.889Z,95333.00
2023-05-10T03:46:31.698Z,95341.00
2023-05-10T03:49:20.348Z,95339.00
2023-05-10T03:52:07.644Z,95337.00
2023-05-10T03:54:54.897Z,95330.00
2023-05-10T03:57:40.979Z,95334.00
2023-05-10T04:00:27.272Z,95329.00
2023-05-10T04:03:15.684Z,95336.00
2023-05-10T04:06:02.857Z,95346.00
2023-05-10T04:08:49.302Z,95338.00
2023-05-10T04:11:35.411Z,95344.00
2023-05-10T04:14:24.713Z,95351.00
2023-05-10T04:17:13.842Z,95340.00
2023-05-10T04:20:02.097Z,95341.00
2023-05-10T04:22:48.122Z,95344.00
2023-05-10T04:25:36.625Z,95352.00
2023-05-10T04:28:23.127Z,95344.00
2023-05-10T04:31:11.488Z,95357.00
2023-05-10T04:34:00.827Z,95359.00
2023-05-10T04:36:46.697Z,95354.00
2023-05-10T04:39:33.342Z,95360.00
2023-05-10T04:42:19.452Z,95363.00
2023-05-10T04:45:08.009Z,95365.00
2023-05-10T04:47:53.980Z,95363.00
2023-05-10T04:50:40.507Z,95370.00
2023-05-10T04:53:26.458Z,95380.00
2023-05-10T04:56:12.511Z,95377.00
2023-05-10T04:58:58.840Z,95383.00
2023-05-10T05:01:44.960Z,95387.00
2023-05-10T05:04:38.723Z,95384.00
2023-05-10T05:07:25.337Z,95389.00
2023-05-10T05:10:15.274Z,95379.00
2023-05-10T05:13:01.313Z,95384.00
2023-05-10T05:15:47.129Z,95393.00
2023-05-10T05:18:33.693Z,95392.00
2023-05-10T05:21:22.529Z,95393.00
2023-05-10T05:24:08.828Z,95392.00
2023-05-10T05:26:56.036Z,95394.00
2023-05-10T05:29:42.202Z,95399.00
2023-05-10T05:32:29.739Z,95393.00
2023-05-10T05:35:16.011Z,95406.00
2023-05-10T05:38:05.182Z,95407.00
2023-05-10T05:40:51.112Z,95402.00
2023-05-10T05:43:38.207Z,95408.00
2023-05-10T05:46:24.815Z,95405.00
2023-05-10T05:49:11.178Z,95403.00
2023-05-10T05:52:04.958Z,95404.00
2023-05-10T05:54:50.848Z,95409.00
2023-05-10T05:57:36.438Z,95418.00
2023-05-10T06:00:22.493Z,95415.00
2023-05-10T06:03:11.967Z,95421.00
2023-05-10T06:05:58.435Z,95411.00
2023-05-10T06:08:44.332Z,95423.00
2023-05-10T06:11:30.159Z,95422.00
2023-05-10T06:14:16.230Z,95426.00
2023-05-10T06:17:06.353Z,95430.00
2023-05-10T06:19:52.401Z,95423.00
2023-05-10T06:22:38.445Z,95430.00
2023-05-10T06:25:24.293Z,95434.00
2023-05-10T06:28:12.974Z,95434.00
2023-05-10T06:30:58.779Z,95434.00
2023-05-10T06:33:44.639Z,95438.00
2023-05-10T06:36:32.229Z,95441.00
2023-05-10T06:39:18.504Z,95439.00
2023-05-10T06:42:05.665Z,95448.00
2023-05-10T06:44:52.674Z,95458.00
2023-05-10T06:47:39.369Z,95446.00
2023-05-10T06:50:25.974Z,95453.00
2023-05-10T06:53:15.159Z,95446.00
2023-05-10T06:56:04.414Z,95450.00
2023-05-10T06:58:56.328Z,95450.00
2023-05-10T07:01:44.679Z,95468.00
2023-05-10T07:04:35.685Z,95463.00
2023-05-10T07:07:23.799Z,95461.00
2023-05-10T07:10:10.983Z,95472.00
2023-05-10T07:13:11.308Z,95473.00
2023-05-10T07:15:57.606Z,95463.00
2023-05-10T07:18:46.345Z,95463.00
2023-05-10T07:21:32.434Z,95469.00
2023-05-10T07:24:18.968Z,95471.00
2023-05-10T07:27:10.463Z,95467.00
2023-05-10T07:29:57.687Z,95471.00
2023-05-10T07:32:43.482Z,95470.00
2023-05-10T07:35:31.794Z,95479.00
2023-05-10T07:38:18.660Z,95486.00
2023-05-10T07:41:04.580Z,95475.00
2023-05-10T07:43:50.783Z,95473.00
2023-05-10T07:46:39.355Z,95486.00
2023-05-10T07:49:27.900Z,95479.00
2023-05-10T07:52:14.822Z,95478.00
2023-05-10T07:55:00.634Z,95481.00
2023-05-10T07:57:46.590Z,95477.00
2023-05-10T08:00:32.825Z,95482.00
2023-05-10T08:03:20.722Z,95480.00
2023-05-10T08:06:09.165Z,95479.00
2023-05-10T08:08:55.257Z,95483.00
2023-05-10T08:11:44.852Z,95482.00
2023-05-10T08:14:31.870Z,95477.00
2023-05-10T08:17:24.113Z,95475.00
2023-05-10T08:20:10.915Z,95474.00
2023-05-10T08:22:58.359Z,95481.00
2023-05-10T08:25:44.463Z,95478.00
2023-05-10T08:28:32.809Z,95473.00
2023-05-10T08:31:19.393Z,95477.00
2023-05-10T08:34:05.704Z,95479.00
2023-05-10T08:37:01.295Z,95485.00
2023-05-10T08:39:49.100Z,95488.00
2023-05-10T08:42:41.321Z,95486.00
2023-05-10T08:45:37.629Z,95487.00
2023-05-10T08:48:29.607Z,95485.00
2023-05-10T08:51:29.487Z,95494.00
2023-05-10T08:54:16.346Z,95498.00
2023-05-10T08:57:04.017Z,95496.00
2023-05-10T08:59:50.097Z,95496.00
2023-05-10T09:02:40.485Z,95497.00
2023-05-10T09:05:26.546Z,95499.00
2023-05-10T09:08:14.207Z,95509.00
2023-05-10T09:11:04.527Z,95508.00
2023-05-10T09:13:54.257Z,95501.00
2023-05-10T09:16:41.490Z,95506.00
2023-05-10T09:19:27.655Z,95499.00
2023-05-10T09:22:14.548Z,95502.00
2023-05-10T09:25:13.072Z,95500.00
2023-05-10T09:28:01.541Z,95506.00
2023-05-10T09:30:56.866Z,95511.00
2023-05-10T09:33:50.919Z,95507.00
2023-05-10T09:36:36.898Z,95499.00
2023-05-10T09:39:33.208Z,95509.00
2023-05-10T09:42:20.063Z,95506.00
2023-05-10T09:45:07.507Z,95513.00
2023-05-10T09:47:54.022Z,95509.00
2023-05-10T09:50:40.454Z,95509.00
2023-05-10T09:53:26.433Z,95513.00
2023-05-10T09:56:14.083Z,95507.00
2023-05-10T09:59:12.074Z,95507.00
2023-05-10T10:02:04.187Z,95507.00
2023-05-10T10:04:51.799Z,95505.00
2023-05-10T10:07:38.723Z,95499.00
2023-05-10T10:10:28.713Z,95504.00
2023-05-10T10:13:18.506Z,95504.00
2023-05-10T10:16:05.211Z,95503.00
2023-05-10T10:18:51.599Z,95514.00
2023-05-10T10:21:38.395Z,95505.00
2023-05-10T10:24:24.372Z,95511.00
2023-05-10T10:27:42.972Z,95510.00
2023-05-10T10:30:43.728Z,95510.00
2023-05-10T10:33:52.283Z,95505.00
2023-05-10T10:36:48.184Z,95506.00
2023-05-10T10:39:38.056Z,95499.00
2023-05-10T10:42:47.522Z,95501.00
2023-05-10T10:45:33.544Z,95516.00
2023-05-10T10:48:26.811Z,95504.00
2023-05-10T10:51:15.563Z,95504.00
2023-05-10T10:54:11.614Z,95503.00
2023-05-10T10:57:15.337Z,95512.00
2023-05-10T11:00:36.229Z,95506.00
2023-05-10T11:03:22.555Z,95498.00
2023-05-10T11:06:10.925Z,95498.00
2023-05-10T11:08:56.729Z,95503.00
2023-05-10T11:12:00.169Z,95500.00
2023-05-10T11:14:52.356Z,95503.00
2023-05-10T11:17:38.798Z,95516.00
2023-05-10T11:20:34.261Z,95506.00
2023-05-10T11:23:22.360Z,95509.00
2023-05-10T11:26:12.836Z,95504.00
2023-05-10T11:29:03.021Z,95502.00
2023-05-10T11:31:50.713Z,95504.00
2023-05-10T11:34:36.915Z,95496.00
2023-05-10T11:37:22.685Z,95501.00
2023-05-10T11:40:12.874Z,95503.00
2023-05-10T11:42:59.646Z,95508.00
2023-05-10T11:45:46.697Z,95504.00
2023-05-10T11:48:32.723Z,95513.00
2023-05-10T11:51:23.338Z,95505.00
2023-05-10T11:54:14.388Z,95523.00
2023-05-10T11:57:00.072Z,95517.00
2023-05-10T11:59:51.757Z,95527.00
2023-05-10T12:02:38.400Z,95524.00
2023-05-10T12:05:24.803Z,95533.00
2023-05-10T12:08:17.164Z,95527.00
2023-05-10T12:11:16.642Z,95539.00
2023-05-10T12:14:06.485Z,95540.00
2023-05-10T12:16:52.375Z,95534.00
2023-05-10T12:19:43.293Z,95543.00
2023-05-10T12:22:36.131Z,95545.00
2023-05-10T12:25:24.977Z,95552.00
2023-05-10T12:28:10.945Z,95552.00
2023-05-10T12:30:59.075Z,95545.00
2023-05-10T12:33:47.439Z,95553.00
2023-05-10T12:36:33.833Z,95550.00
2023-05-10T12:39:19.704Z,95551.00
2023-05-10T12:42:05.759Z,95558.00
2023-05-10T12:44:58.591Z,95554.00
2023-05-10T12:47:44.491Z,95558.00
2023-05-10T12:50:30.403Z,95556.00
2023-05-10T12:53:17.594Z,95558.00
2023-05-10T12:56:03.453Z,95563.00
2023-05-10T12:58:51.683Z,95559.00
2023-05-10T13:01:39.981Z,95566.00
2023-05-10T13:04:26.395Z,95572.00
2023-05-10T13:07:12.604Z,95593.00
2023-05-10T13:09:58.482Z,95595.00
2023-05-10T13:12:44.686Z,95601.00
2023-05-10T13:15:30.642Z,95599.00
2023-05-10T13:18:19.320Z,95598.00
2023-05-10T13:21:06.497Z,95606.00
2023-05-10T13:23:55.303Z,95601.00
2023-05-10T13:26:44.823Z,95606.00
2023-05-10T13:29:30.894Z,95599.00
2023-05-10T13:32:17.498Z,95602.00
2023-05-10T13:35:07.197Z,95602.00
2023-05-10T13:37:54.583Z,95605.00
2023-05-10T13:40:53.554Z,95605.00
2023-05-10T13:43:40.010Z,95615.00
2023-05-10T13:46:26.220Z,95599.00
2023-05-10T13:49:14.563Z,95604.00
2023-05-10T13:52:02.669Z,95605.00
2023-05-10T13:54:48.888Z,95595.00
2023-05-10T13:57:37.299Z,95594.00
2023-05-10T14:00:23.289Z,95591.00
2023-05-10T14:03:12.050Z,95596.00
2023-05-10T14:05:59.859Z,95588.00
2023-05-10T14:08:46.758Z,95591.00
2023-05-10T14:11:32.859Z,95593.00
2023-05-10T14:14:21.946Z,95586.00
2023-05-10T14:17:11.450Z,95587.00
2023-05-10T14:20:01.307Z,95592.00
2023-05-10T14:22:50.312Z,95580.00
2023-05-10T14:25:37.097Z,95584.00
2023-05-10T14:28:26.384Z,95591.00
2023-05-10T14:31:15.761Z,95590.00
2023-05-10T14:34:01.278Z,95588.00
2023-05-10T14:36:47.908Z,95581.00
2023-05-10T14:39:34.345Z,95587.00
2023-05-10T14:42:20.389Z,95588.00
2023-05-10T14:45:07.038Z,95588.00
2023-05-10T14:47:53.561Z,95583.00
2023-05-10T14:50:45.254Z,95585.00
2023-05-10T14:53:31.629Z,95582.00
2023-05-10T14:56:17.432Z,95576.00
2023-05-10T14:59:05.021Z,95580.00
2023-05-10T15:01:51.496Z,95579.00
2023-05-10T15:04:38.376Z,95575.00
2023-05-10T15:07:25.369Z,95575.00
2023-05-10T15:10:12.818Z,95571.00
2023-05-10T15:13:02.906Z,95578.00
2023-05-10T15:15:49.444Z,95576.00
2023-05-10T15:18:35.781Z,95575.00
2023-05-10T15:21:24.262Z,95579.00
2023-05-10T15:24:11.486Z,95581.00
2023-05-10T15:26:57.561Z,95582.00
2023-05-10T15:29:45.876Z,95586.00
2023-05-10T15:32:34.879Z,95579.00
2023-05-10T15:35:25.074Z,95588.00
2023-05-10T15:38:11.947Z,95590.00
2023-05-10T15:40:59.150Z,95584.00
2023-05-10T15:43:45.101Z,95592.00
2023-05-10T15:46:31.708Z,95594.00
2023-05-10T15:49:19.815Z,95599.00
2023-05-10T15:52:08.332Z,95597.00
2023-05-10T15:54:56.939Z,95602.00
2023-05-10T15:57:53.268Z,95603.00
2023-05-10T16:00:39.531Z,95600.00
2023-05-10T16:03:25.327Z,95605.00
2023-05-10T16:06:13.764Z,95609.00
2023-05-10T16:08:59.891Z,95613.00
2023-05-10T16:11:46.022Z,95605.00
2023-05-10T16:14:32.131Z,95597.00
2023-05-10T16:20:10.025Z,95610.00
2023-05-10T16:22:56.550Z,95609.00
2023-05-10T16:25:42.572Z,95611.00
2023-05-10T16:28:31.766Z,95610.00
2023-05-10T16:31:19.289Z,95615.00
2023-05-10T16:34:05.416Z,95617.00
2023-05-10T16:36:51.735Z,95609.00
2023-05-10T16:39:37.904Z,95619.00
2023-05-10T16:42:26.252Z,95618.00
2023-05-10T16:45:25.109Z,95620.00
2023-05-10T16:48:20.495Z,95622.00
2023-05-10T16:51:06.951Z,95621.00
2023-05-10T16:53:56.485Z,95627.00
2023-05-10T16:56:42.517Z,95623.00
2023-05-10T16:59:28.794Z,95628.00
2023-05-10T17:02:15.980Z,95620.00
2023-05-10T17:05:02.295Z,95620.00
2023-05-10T17:07:48.679Z,95624.00
2023-05-10T17:10:35.026Z,95627.00
2023-05-10T17:13:21.006Z,95631.00
2023-05-10T17:16:08.288Z,95631.00
2023-05-10T17:18:54.646Z,95633.00
2023-05-10T17:21:41.898Z,95630.00
2023-05-10T17:24:29.871Z,95629.00
2023-05-10T17:27:16.552Z,95624.00
2023-05-10T17:30:08.869Z,95634.00
2023-05-10T17:32:55.029Z,95625.00
2023-05-10T17:35:41.320Z,95632.00
2023-05-10T17:38:27.241Z,95628.00
2023-05-10T17:41:14.599Z,95638.00
2023-05-10T17:44:00.410Z,95627.00
2023-05-10T17:46:46.501Z,95627.00
2023-05-10T17:49:32.753Z,95633.00
2023-05-10T17:52:33.654Z,95637.00
2023-05-10T17:55:19.894Z,95641.00
2023-05-10T17:58:05.872Z,95642.00
2023-05-10T18:00:57.886Z,95634.00
2023-05-10T18:03:44.334Z,95641.00
2023-05-10T18:06:33.698Z,95639.00
2023-05-10T18:09:21.312Z,95645.00
2023-05-10T18:12:07.335Z,95643.00
2023-05-10T18:14:53.353Z,95652.00
2023-05-10T18:17:39.373Z,95638.00
2023-05-10T18:20:26.083Z,95650.00
2023-05-10T18:23:12.693Z,95647.00
2023-05-10T18:25:59.430Z,95652.00
2023-05-10T18:28:45.371Z,95651.00
2023-05-10T18:31:31.623Z,95644.00
2023-05-10T18:34:17.773Z,95646.00
2023-05-10T18:37:07.919Z,95646.00
2023-05-10T18:39:54.102Z,95643.00
2023-05-10T18:42:41.189Z,95644.00
2023-05-10T18:45:27.788Z,95646.00
2023-05-10T18:48:13.860Z,95646.00
2023-05-10T18:51:00.530Z,95641.00
2023-05-10T18:53:48.019Z,95647.00
2023-05-10T18:56:34.118Z,95654.00
2023-05-10T18:59:20.693Z,95651.00
2023-05-10T19:02:07.150Z,95651.00
2023-05-10T19:04:53.555Z,95645.00
2023-05-10T19:07:43.384Z,95650.00
2023-05-10T19:10:33.583Z,95656.00
2023-05-10T19:13:19.763Z,95657.00
2023-05-10T19:16:17.293Z,95645.00
2023-05-10T19:19:03.692Z,95654.00
2023-05-10T19:21:50.088Z,95662.00
2023-05-10T19:24:37.596Z,95661.00
2023-05-10T19:27:24.328Z,95661.00
2023-05-10T19:30:13.857Z,95663.00
2023-05-10T19:32:59.743Z,95672.00
2023-05-10T19:35:46.218Z,95667.00
2023-05-10T19:38:32.144Z,95665.00
2023-05-10T19:41:19.627Z,95667.00
2023-05-10T19:44:08.959Z,95666.00
2023-05-10T19:46:56.193Z,95670.00
2023-05-10T19:49:42.560Z,95670.00
2023-05-10T19:52:28.885Z,95663.00
2023-05-10T19:55:27.228Z,95667.00
2023-05-10T19:58:20.392Z,95673.00
2023-05-10T20:01:08.927Z,95669.00
2023-05-10T20:03:55.425Z,95670.00
2023-05-10T20:06:41.105Z,95674.00
2023-05-10T20:09:30.479Z,95663.00
2023-05-10T20:12:16.647Z,95678.00
2023-05-10T20:15:08.014Z,95684.00
2023-05-10T20:17:58.646Z,95681.00
2023-05-10T20:20:48.060Z,95691.00
2023-05-10T20:23:38.708Z,95684.00
2023-05-10T20:26:27.603Z,95690.00
2023-05-10T20:29:15.193Z,95683.00
2023-05-10T20:32:06.137Z,95679.00
2023-05-10T20:34:52.580Z,95674.00
2023-05-10T20:37:39.775Z,95678.00
2023-05-10T20:40:26.205Z,95679.00
2023-05-10T20:43:20.734Z,95672.00
2023-05-10T20:46:19.595Z,95673.00
2023-05-10T20:49:17.728Z,95677.00
2023-05-10T20:52:07.524Z,95671.00
2023-05-10T20:55:09.180Z,95677.00
2023-05-10T20:57:55.636Z,95678.00
2023-05-10T21:00:45.083Z,95670.00
2023-05-10T21:03:31.084Z,95668.00
2023-05-10T21:06:18.733Z,95676.00
2023-05-10T21:09:08.145Z,95673.00
2023-05-10T21:11:53.921Z,95678.00
2023-05-10T21:14:40.029Z,95677.00
2023-05-10T21:17:29.589Z,95667.00
2023-05-10T21:20:15.697Z,95663.00
2023-05-10T21:23:01.858Z,95669.00
2023-05-10T21:25:49.874Z,95667.00
2023-05-10T21:28:36.525Z,95655.00
2023-05-10T21:31:23.681Z,95652.00
2023-05-10T21:34:09.895Z,95650.00
2023-05-10T21:36:55.921Z,95657.00
2023-05-10T21:39:42.235Z,95652.00
2023-05-10T21:42:35.959Z,95654.00
2023-05-10T21:45:21.997Z,95663.00
2023-05-10T21:48:08.221Z,95657.00
2023-05-10T21:50:54.263Z,95655.00
2023-05-10T21:53:40.888Z,95648.00
2023-05-10T21:56:29.403Z,95653.00
2023-05-10T21:59:15.434Z,95649.00
2023-05-10T22:02:01.385Z,95651.00
2023-05-10T22:04:47.173Z,95651.00
2023-05-10T22:07:35.450Z,95654.00
2023-05-10T22:10:21.367Z,95648.00
2023-05-10T22:13:07.348Z,95645.00
2023-05-10T22:15:53.173Z,95650.00
2023-05-10T22:18:39.090Z,95647.00
2023-05-10T22:21:25.884Z,95644.00
2023-05-10T22:24:11.906Z,95649.00
2023-05-10T22:26:57.735Z,95650.00
2023-05-10T22:29:43.376Z,95649.00
2023-05-10T22:32:32.055Z,95647.00
2023-05-10T22:35:18.053Z,95648.00
2023-05-10T22:38:04.128Z,95648.00
2023-05-10T22:40:50.298Z,95658.00
2023-05-10T22:43:36.159Z,95652.00
2023-05-10T22:46:21.962Z,95643.00
2023-05-10T22:49:08.226Z,95650.00
2023-05-10T22:51:56.073Z,95648.00
2023-05-10T22:54:44.333Z,95647.00
2023-05-10T22:57:31.516Z,95653.00
2023-05-10T23:00:20.785Z,95648.00
2023-05-10T23:03:07.162Z,95651.00
2023-05-10T23:05:55.798Z,95650.00
2023-05-10T23:08:41.665Z,95647.00
2023-05-10T23:11:27.639Z,95656.00
2023-05-10T23:14:19.842Z,95643.00
2023-05-10T23:17:05.654Z,95654.00
2023-05-10T23:19:51.647Z,95656.00
2023-05-10T23:22:37.993Z,95650.00
2023-05-10T23:25:24.661Z,95652.00
2023-05-10T23:28:11.187Z,95657.00
2023-05-10T23:30:59.863Z,95660.00
2023-05-10T23:33:45.508Z,95662.00
2023-05-10T23:36:31.888Z,95656.00
2023-05-10T23:39:17.472Z,95659.00
2023-05-10T23:42:04.886Z,95657.00
2023-05-10T23:44:52.520Z,95659.00
2023-05-10T23:47:38.489Z,95656.00
2023-05-10T23:50:24.498Z,95655.00
2023-05-10T23:53:10.861Z,95653.00
2023-05-10T23:55:56.803Z,95650.00
2023-05-10T23:58:45.480Z,95652.00
